Time;durP1;ratioP1;P1;durP2;ratioP2;P2;SDS_P1;SDS_P2;PMS_P1;PMS_P2;Temp;Humidity;BMP_temperature;BMP_pressure;BME280_temperature;BME280_humidity;BME280_pressure;Samples;Min_cycle;Max_cycle;Signal;HPM_P1;HPM_P2
2024/01/03 00:14:04;;;;;;;8.90;2.30;;;8.30;99.90;;;;;;6096942;23;20133;-93
2024/01/03 00:17:31;;;;;;;;;;;;;;;;;;;;;
2024/01/03 00:20:34;;;;;;;;;;;;;;;;;;;;;
2024/01/03 00:23:49;;;;;;;5.50;1.75;;;7.50;99.90;;;;;;6198624;22;20073;-91
2024/01/03 00:36:16;;;;;;;9.80;2.92;;;7.40;99.90;;;;;;6252159;22;20023;-91
2024/01/03 00:48:35;;;;;;;;;;;;;;;;;;;;;
2024/01/03 00:51:46;;;;;;;9.48;2.80;;;7.30;99.90;;;;;;6308487;22;20015;-92
2024/01/03 01:16:01;;;;;;;;;;;;;;;;;;;;;
2024/01/03 01:22:50;;;;;;;11.57;2.53;;;7.00;99.90;;;;;;6143234;23;20027;-91
2024/01/03 01:26:18;;;;;;;11.88;2.95;;;7.20;99.90;;;;;;6095839;23;20100;-92
2024/01/03 01:41:24;;;;;;;9.13;1.83;;;7.10;99.90;;;;;;6104434;23;20030;-91
2024/01/03 01:58:47;;;;;;;;;;;;;;;;;;;;;
2024/01/03 02:16:01;;;;;;;;;;;;;;;;;;;;;
2024/01/03 02:23:29;;;;;;;;;;;;;;;;;;;;;
2024/01/03 02:26:46;;;;;;;;;;;;;;;;;;;;;
2024/01/03 02:30:06;;;;;;;;;;;;;;;;;;;;;
2024/01/03 02:37:26;;;;;;;;;;;;;;;;;;;;;
2024/01/03 02:55:06;;;;;;;;;;;;;;;;;;;;;
2024/01/03 02:58:20;;;;;;;;;;;;;;;;;;;;;
2024/01/03 03:16:36;;;;;;;;;;;;;;;;;;;;;
2024/01/03 03:40:40;;;;;;;;;;;;;;;;;;;;;
2024/01/03 03:47:09;;;;;;;2.60;1.00;;;7.50;99.90;;;;;;6202331;23;20020;-91
2024/01/03 03:49:53;;;;;;;4.95;1.10;;;6.80;99.90;;;;;;6220611;22;20020;-91
2024/01/03 03:53:10;;;;;;;2.65;0.80;;;7.40;99.90;;;;;;6284058;22;20098;-92
2024/01/03 03:59:41;;;;;;;;;;;;;;;;;;;;;
2024/01/03 04:02:30;;;;;;;3.42;1.00;;;7.40;99.90;;;;;;6309229;22;20026;-91
2024/01/03 04:06:27;;;;;;;;;;;;;;;;;;;;;
2024/01/03 04:45:28;;;;;;;;;;;;;;;;;;;;;
2024/01/03 05:03:30;;;;;;;22.23;4.15;;;8.00;99.90;;;;;;5928057;24;20044;-92
2024/01/03 05:06:46;;;;;;;;;;;;;;;;;;;;;
2024/01/03 05:09:56;;;;;;;23.98;5.85;;;9.10;99.90;;;;;;5902152;24;20032;-92
2024/01/03 05:20:53;;;;;;;;;;;;;;;;;;;;;
2024/01/03 05:38:20;;;;;;;14.20;4.32;;;8.70;99.90;;;;;;6074268;23;20029;-92
2024/01/03 05:51:46;;;;;;;;;;;;;;;;;;;;;
2024/01/03 06:32:02;;;;;;;;;;;;;;;;;;;;;
2024/01/03 06:35:30;;;;;;;16.88;3.33;;;8.30;99.90;;;;;;5953096;24;20571;-92
2024/01/03 06:45:11;;;;;;;;;;;;;;;;;;;;;
2024/01/03 06:47:56;;;;;;;;;;;;;;;;;;;;;
2024/01/03 06:51:34;;;;;;;;;;;;;;;;;;;;;
2024/01/03 06:54:26;;;;;;;;;;;;;;;;;;;;;
2024/01/03 06:57:56;;;;;;;11.18;3.33;;;8.30;99.90;;;;;;6307626;22;20015;-92
2024/01/03 07:08:21;;;;;;;;;;;;;;;;;;;;;
2024/01/03 07:22:51;;;;;;;20.33;4.45;;;8.40;99.90;;;;;;6219394;22;20404;-92
2024/01/03 07:33:01;;;;;;;15.35;3.55;;;8.20;99.90;;;;;;6216853;23;20076;-93
2024/01/03 07:39:38;;;;;;;;;;;;;;;;;;;;;
2024/01/03 07:42:41;;;;;;;;;;;;;;;;;;;;;
2024/01/03 07:45:34;;;;;;;13.07;3.70;;;8.20;99.90;;;;;;6189162;23;20037;-92
2024/01/03 07:51:44;;;;;;;;;;;;;;;;;;;;;
2024/01/03 07:55:01;;;;;;;;;;;;;;;;;;;;;
2024/01/03 07:57:44;;;;;;;11.77;2.70;;;8.20;99.90;;;;;;6305452;22;20019;-92
2024/01/03 08:00:11;;;;;;;9.90;2.90;;;8.20;99.90;;;;;;6259074;22;20018;-90
2024/01/03 08:02:46;;;;;;;;;;;8.10;99.90;;;;;;6282941;22;20390;-90
2024/01/03 08:05:22;;;;;;;4.28;2.00;;;8.20;99.90;;;;;;6284159;22;19965;-91
2024/01/03 08:08:11;;;;;;;7.35;2.03;;;8.10;99.90;;;;;;6283783;22;20019;-91
2024/01/03 08:10:48;;;;;;;9.60;2.20;;;8.00;99.90;;;;;;6283889;22;20077;-91
2024/01/03 08:13:54;;;;;;;5.63;2.38;;;8.00;99.90;;;;;;6261234;22;20482;-91
2024/01/03 08:16:41;;;;;;;14.05;2.42;;;7.90;99.90;;;;;;6260068;22;20019;-91
2024/01/03 08:19:42;;;;;;;;;;;;;;;;;;;;;
2024/01/03 08:22:38;;;;;;;9.43;2.03;;;8.00;99.90;;;;;;6286022;22;20015;-92
2024/01/03 08:25:17;;;;;;;;;;;;;;;;;;;;;
2024/01/03 08:27:48;;;;;;;8.63;2.28;;;8.00;99.90;;;;;;6285844;22;20018;-90
2024/01/03 08:31:00;;;;;;;10.20;2.20;;;8.50;99.90;;;;;;6287342;22;20023;-92
2024/01/03 08:34:17;;;;;;;;;;;;;;;;;;;;;
2024/01/03 08:40:57;;;;;;;13.13;3.22;;;8.00;99.90;;;;;;6309750;22;20020;-93
2024/01/03 08:43:33;;;;;;;13.48;2.95;;;8.70;99.90;;;;;;6283480;22;20027;-91
2024/01/03 08:47:01;;;;;;;;;;;;;;;;;;;;;
2024/01/03 08:49:53;;;;;;;14.43;3.40;;;8.20;99.90;;;;;;6311367;22;20016;-92
2024/01/03 08:52:55;;;;;;;9.60;2.25;;;8.40;99.90;;;;;;6284737;22;20042;-93
2024/01/03 08:55:43;;;;;;;21.33;3.47;;;7.60;99.90;;;;;;6289428;22;20058;-91
2024/01/03 08:58:19;;;;;;;6.28;2.00;;;8.30;99.90;;;;;;6282674;22;20490;-90
2024/01/03 09:00:50;;;;;;;7.63;2.50;;;8.20;99.90;;;;;;6255630;22;20450;-87
2024/01/03 09:03:23;;;;;;;13.43;2.50;;;8.30;99.90;;;;;;6255277;22;20015;-91
2024/01/03 09:05:57;;;;;;;10.48;2.50;;;8.30;99.90;;;;;;6230222;22;20038;-91
2024/01/03 09:08:28;;;;;;;10.35;3.25;;;8.30;99.90;;;;;;6254785;22;20015;-91
2024/01/03 09:10:56;;;;;;;5.22;2.28;;;8.20;99.90;;;;;;6255408;22;20489;-88
2024/01/03 09:13:22;;;;;;;11.30;2.70;;;7.80;99.90;;;;;;6254376;22;20023;-90
2024/01/03 09:16:09;;;;;;;10.40;2.70;;;8.40;99.90;;;;;;6279877;22;20016;-91
2024/01/03 09:18:38;;;;;;;15.27;3.20;;;8.40;99.90;;;;;;6279869;22;20019;-89
2024/01/03 09:21:04;;;;;;;11.95;3.13;;;8.30;99.90;;;;;;6279717;22;20019;-89
2024/01/03 09:23:30;;;;;;;8.30;2.20;;;8.30;99.90;;;;;;6229098;22;20022;-90
2024/01/03 09:25:59;;;;;;;10.10;2.63;;;8.50;99.90;;;;;;6279512;22;20038;-89
2024/01/03 09:28:27;;;;;;;14.27;3.55;;;8.40;99.90;;;;;;6255006;22;20103;-89
2024/01/03 09:30:53;;;;;;;7.03;3.03;;;8.40;99.90;;;;;;6254049;22;20015;-89
2024/01/03 09:33:19;;;;;;;10.17;2.83;;;8.50;99.90;;;;;;6278908;22;20351;-89
2024/01/03 09:35:52;;;;;;;11.60;2.97;;;8.50;99.90;;;;;;6254054;22;20012;-89
2024/01/03 09:38:18;;;;;;;11.90;3.20;;;8.50;99.90;;;;;;6253789;22;20077;-89
2024/01/03 09:40:49;;;;;;;18.50;4.70;;;8.50;99.90;;;;;;6279435;22;20015;-89
2024/01/03 09:43:16;;;;;;;12.90;3.15;;;8.50;99.90;;;;;;6279016;22;20023;-89
2024/01/03 09:45:49;;;;;;;11.23;3.35;;;8.60;99.90;;;;;;6279459;22;20011;-89
2024/01/03 09:48:20;;;;;;;11.30;3.00;;;8.60;99.90;;;;;;6279135;22;20019;-88
2024/01/03 09:50:50;;;;;;;10.43;2.70;;;8.50;99.90;;;;;;6279298;22;20015;-89
2024/01/03 09:53:17;;;;;;;11.00;3.25;;;8.50;99.90;;;;;;6280893;22;20015;-88
2024/01/03 09:55:43;;;;;;;;;;;8.50;99.90;;;;;;6281825;22;20011;-89
2024/01/03 09:58:09;;;;;;;9.13;2.15;;;7.70;99.90;;;;;;6281101;22;19918;-89
2024/01/03 10:00:35;;;;;;;11.23;3.33;;;8.50;99.90;;;;;;6280779;22;20516;-89
2024/01/03 10:03:05;;;;;;;9.80;2.67;;;8.60;99.90;;;;;;6280975;22;20015;-89
2024/01/03 10:05:33;;;;;;;9.10;2.78;;;8.10;99.90;;;;;;6307138;22;20011;-89
2024/01/03 10:08:00;;;;;;;9.20;2.38;;;7.90;99.90;;;;;;6280861;22;20450;-90
2024/01/03 10:10:44;;;;;;;9.05;2.78;;;8.70;99.90;;;;;;6281728;22;20053;-90
2024/01/03 10:13:50;;;;;;;7.75;2.60;;;8.70;99.90;;;;;;6281133;22;20011;-89
2024/01/03 10:16:24;;;;;;;9.32;2.38;;;8.60;99.90;;;;;;6281883;22;20485;-90
2024/01/03 10:19:20;;;;;;;6.78;1.88;;;8.70;99.90;;;;;;6281407;22;20015;-91
2024/01/03 10:22:02;;;;;;;7.53;2.92;;;8.60;99.90;;;;;;6279389;22;20019;-92
2024/01/03 10:24:31;;;;;;;14.90;2.70;;;8.60;99.90;;;;;;6281144;22;20015;-91
2024/01/03 10:27:13;;;;;;;6.63;3.08;;;8.70;99.90;;;;;;6281097;22;20054;-90
2024/01/03 10:29:41;;;;;;;7.78;2.65;;;9.60;99.90;;;;;;6281159;22;20019;-91
2024/01/03 10:32:10;;;;;;;6.55;1.95;;;8.90;99.90;;;;;;6281006;22;20093;-92
2024/01/03 10:34:42;;;;;;;6.57;1.55;;;8.80;99.90;;;;;;6281594;22;20385;-91
2024/01/03 10:37:11;;;;;;;8.07;2.22;;;8.80;99.90;;;;;;6281632;22;20007;-89
2024/01/03 10:39:38;;;;;;;7.15;1.80;;;8.80;99.90;;;;;;6281463;22;20042;-90
2024/01/03 10:42:07;;;;;;;6.47;2.10;;;8.90;99.90;;;;;;6280918;22;20015;-89
2024/01/03 10:44:34;;;;;;;4.72;1.85;;;8.90;99.90;;;;;;6281499;22;20011;-89
2024/01/03 10:47:07;;;;;;;5.38;2.33;;;8.90;99.90;;;;;;6280504;22;20021;-90
2024/01/03 10:49:39;;;;;;;10.40;2.72;;;8.90;99.90;;;;;;6281338;22;20019;-89
2024/01/03 10:52:07;;;;;;;8.05;3.38;;;8.90;99.90;;;;;;6280714;22;20447;-91
2024/01/03 10:59:05;;;;;;;;;;;;;;;;;;;;;
2024/01/03 11:02:26;;;;;;;17.23;3.08;;;8.90;99.90;;;;;;6214521;23;20020;-92
2024/01/03 11:05:39;;;;;;;20.63;4.80;;;8.90;99.90;;;;;;6143063;22;20012;-92
2024/01/03 11:08:59;;;;;;;11.68;2.72;;;9.00;99.90;;;;;;6248825;22;20011;-94
2024/01/03 11:12:13;;;;;;;11.93;3.03;;;8.90;99.90;;;;;;6280400;22;20015;-93
2024/01/03 11:15:43;;;;;;;17.52;3.20;;;8.50;99.90;;;;;;6220917;22;20106;-94
2024/01/03 11:18:41;;;;;;;;;;;;;;;;;;;;;
2024/01/03 11:30:11;;;;;;;;;;;;;;;;;;;;;
2024/01/03 12:26:20;;;;;;;19.63;4.68;;;9.10;99.90;;;;;;5883344;22;9222562;-93
2024/01/03 12:36:56;;;;;;;16.00;4.78;;;8.40;99.90;;;;;;6069162;23;20022;-93
2024/01/03 12:40:06;;;;;;;;;;;;;;;;;;;;;
2024/01/03 12:50:53;;;;;;;;;;;;;;;;;;;;;
2024/01/03 12:54:05;;;;;;;;;;;8.60;99.90;;;;;;5988673;24;20087;-94
2024/01/03 19:13:40;;;;;;;;;;;;;;;;;;;;;
2024/01/03 21:36:55;;;;;;;;;;;;;;;;;;;;;
2024/01/03 22:38:55;;;;;;;;;;;;;;;;;;;;;
